sensor_id;sensor_type;location;lat;lon;timestamp;temperature;humidity
17797;DHT22;55596;53.554;9.916;2022-12-07T00:03:20;2.70;99.90
17797;DHT22;55596;53.554;9.916;2022-12-07T00:05:49;2.80;99.90
17797;DHT22;55596;53.554;9.916;2022-12-07T00:08:16;2.70;99.90
17797;DHT22;55596;53.554;9.916;2022-12-07T00:10:42;2.80;99.90
17797;DHT22;55596;53.554;9.916;2022-12-07T00:13:09;2.80;99.90
17797;DHT22;55596;53.554;9.916;2022-12-07T00:15:36;2.80;99.90
17797;DHT22;55596;53.554;9.916;2022-12-07T00:18:03;2.80;99.90
17797;DHT22;55596;53.554;9.916;2022-12-07T00:20:30;2.50;99.90
17797;DHT22;55596;53.554;9.916;2022-12-07T00:22:58;3.00;99.90
17797;DHT22;55596;53.554;9.916;2022-12-07T00:25:25;2.60;99.90
17797;DHT22;55596;53.554;9.916;2022-12-07T00:27:52;2.80;99.90
17797;DHT22;55596;53.554;9.916;2022-12-07T00:30:21;2.80;99.90
17797;DHT22;55596;53.554;9.916;2022-12-07T00:32:48;2.80;99.90
17797;DHT22;55596;53.554;9.916;2022-12-07T00:37:41;2.80;99.90
17797;DHT22;55596;53.554;9.916;2022-12-07T00:40:11;2.80;99.90
17797;DHT22;55596;53.554;9.916;2022-12-07T00:42:40;2.80;99.90
17797;DHT22;55596;53.554;9.916;2022-12-07T00:45:08;2.80;99.90
17797;DHT22;55596;53.554;9.916;2022-12-07T00:47:35;3.20;99.90
17797;DHT22;55596;53.554;9.916;2022-12-07T00:50:02;2.80;99.90
17797;DHT22;55596;53.554;9.916;2022-12-07T00:52:29;3.10;99.90
17797;DHT22;55596;53.554;9.916;2022-12-07T00:54:56;2.70;99.90
17797;DHT22;55596;53.554;9.916;2022-12-07T00:57:24;2.90;99.90
17797;DHT22;55596;53.554;9.916;2022-12-07T00:59:51;2.70;99.90
17797;DHT22;55596;53.554;9.916;2022-12-07T01:02:20;3.00;99.90
17797;DHT22;55596;53.554;9.916;2022-12-07T01:04:47;2.80;99.90
17797;DHT22;55596;53.554;9.916;2022-12-07T01:07:14;2.70;99.90
17797;DHT22;55596;53.554;9.916;2022-12-07T01:09:41;2.90;99.90
17797;DHT22;55596;53.554;9.916;2022-12-07T01:12:08;2.70;99.90
17797;DHT22;55596;53.554;9.916;2022-12-07T01:14:36;2.80;99.90
17797;DHT22;55596;53.554;9.916;2022-12-07T01:17:03;2.90;99.90
17797;DHT22;55596;53.554;9.916;2022-12-07T01:19:30;3.00;99.90
17797;DHT22;55596;53.554;9.916;2022-12-07T01:21:57;2.90;99.90
17797;DHT22;55596;53.554;9.916;2022-12-07T01:24:24;3.10;99.90
17797;DHT22;55596;53.554;9.916;2022-12-07T01:26:51;2.80;99.90
17797;DHT22;55596;53.554;9.916;2022-12-07T01:29:18;2.60;99.90
17797;DHT22;55596;53.554;9.916;2022-12-07T01:31:48;2.50;99.90
17797;DHT22;55596;53.554;9.916;2022-12-07T01:34:15;3.00;99.90
17797;DHT22;55596;53.554;9.916;2022-12-07T01:36:42;2.90;99.90
17797;DHT22;55596;53.554;9.916;2022-12-07T01:39:09;3.00;99.90
17797;DHT22;55596;53.554;9.916;2022-12-07T01:41:39;3.00;99.90
17797;DHT22;55596;53.554;9.916;2022-12-07T01:44:20;3.00;99.90
17797;DHT22;55596;53.554;9.916;2022-12-07T01:46:50;2.90;99.90
17797;DHT22;55596;53.554;9.916;2022-12-07T01:49:30;2.70;99.90
17797;DHT22;55596;53.554;9.916;2022-12-07T01:52:05;3.00;99.90
17797;DHT22;55596;53.554;9.916;2022-12-07T01:54:35;3.20;99.90
17797;DHT22;55596;53.554;9.916;2022-12-07T01:57:03;3.00;99.90
17797;DHT22;55596;53.554;9.916;2022-12-07T01:59:32;3.10;99.90
17797;DHT22;55596;53.554;9.916;2022-12-07T02:02:10;2.90;99.90
17797;DHT22;55596;53.554;9.916;2022-12-07T02:04:39;3.00;99.90
17797;DHT22;55596;53.554;9.916;2022-12-07T02:07:06;2.70;99.90
17797;DHT22;55596;53.554;9.916;2022-12-07T02:09:33;4.80;99.90
17797;DHT22;55596;53.554;9.916;2022-12-07T02:12:01;2.30;99.90
17797;DHT22;55596;53.554;9.916;2022-12-07T02:14:28;2.50;99.90
17797;DHT22;55596;53.554;9.916;2022-12-07T02:17:08;2.30;99.90
17797;DHT22;55596;53.554;9.916;2022-12-07T02:20:23;2.40;99.90
17797;DHT22;55596;53.554;9.916;2022-12-07T02:23:23;2.30;99.90
17797;DHT22;55596;53.554;9.916;2022-12-07T02:29:10;2.30;99.90
17797;DHT22;55596;53.554;9.916;2022-12-07T02:31:43;2.20;99.90
17797;DHT22;55596;53.554;9.916;2022-12-07T02:34:19;2.10;99.90
17797;DHT22;55596;53.554;9.916;2022-12-07T02:36:52;2.10;99.90
17797;DHT22;55596;53.554;9.916;2022-12-07T02:39:26;2.10;99.90
17797;DHT22;55596;53.554;9.916;2022-12-07T02:41:59;2.10;99.90
17797;DHT22;55596;53.554;9.916;2022-12-07T02:44:31;2.10;99.90
17797;DHT22;55596;53.554;9.916;2022-12-07T02:47:02;2.00;99.90
17797;DHT22;55596;53.554;9.916;2022-12-07T02:49:30;2.00;99.90
17797;DHT22;55596;53.554;9.916;2022-12-07T02:51:58;2.20;99.90
17797;DHT22;55596;53.554;9.916;2022-12-07T02:54:25;2.20;99.90
17797;DHT22;55596;53.554;9.916;2022-12-07T02:56:58;2.20;99.90
17797;DHT22;55596;53.554;9.916;2022-12-07T02:59:39;2.10;99.90
17797;DHT22;55596;53.554;9.916;2022-12-07T03:02:18;2.10;99.90
17797;DHT22;55596;53.554;9.916;2022-12-07T03:05:00;2.10;99.90
17797;DHT22;55596;53.554;9.916;2022-12-07T03:07:39;2.10;99.90
17797;DHT22;55596;53.554;9.916;2022-12-07T03:10:18;1.80;99.90
17797;DHT22;55596;53.554;9.916;2022-12-07T03:12:59;2.00;99.90
17797;DHT22;55596;53.554;9.916;2022-12-07T03:15:35;2.00;99.90
17797;DHT22;55596;53.554;9.916;2022-12-07T03:18:05;1.90;99.90
17797;DHT22;55596;53.554;9.916;2022-12-07T03:20:35;1.70;99.90
17797;DHT22;55596;53.554;9.916;2022-12-07T03:23:05;3.40;99.90
17797;DHT22;55596;53.554;9.916;2022-12-07T03:25:35;2.60;99.90
17797;DHT22;55596;53.554;9.916;2022-12-07T03:28:06;2.00;99.90
17797;DHT22;55596;53.554;9.916;2022-12-07T03:30:42;1.80;99.90
17797;DHT22;55596;53.554;9.916;2022-12-07T03:33:13;2.10;99.90
17797;DHT22;55596;53.554;9.916;2022-12-07T03:35:45;1.80;99.90
17797;DHT22;55596;53.554;9.916;2022-12-07T03:38:17;2.20;99.90
17797;DHT22;55596;53.554;9.916;2022-12-07T03:40:49;2.00;99.90
17797;DHT22;55596;53.554;9.916;2022-12-07T03:43:19;1.70;99.90
17797;DHT22;55596;53.554;9.916;2022-12-07T03:45:58;1.70;99.90
17797;DHT22;55596;53.554;9.916;2022-12-07T03:48:32;1.70;99.90
17797;DHT22;55596;53.554;9.916;2022-12-07T03:51:08;1.90;99.90
17797;DHT22;55596;53.554;9.916;2022-12-07T03:53:42;1.80;99.90
17797;DHT22;55596;53.554;9.916;2022-12-07T03:56:12;1.60;99.90
17797;DHT22;55596;53.554;9.916;2022-12-07T03:58:40;1.80;99.90
17797;DHT22;55596;53.554;9.916;2022-12-07T04:01:11;1.70;99.90
17797;DHT22;55596;53.554;9.916;2022-12-07T04:03:39;1.60;99.90
17797;DHT22;55596;53.554;9.916;2022-12-07T04:06:07;1.60;99.90
17797;DHT22;55596;53.554;9.916;2022-12-07T04:08:34;1.60;99.90
17797;DHT22;55596;53.554;9.916;2022-12-07T04:11:01;1.40;99.90
17797;DHT22;55596;53.554;9.916;2022-12-07T04:13:28;1.40;99.90
17797;DHT22;55596;53.554;9.916;2022-12-07T04:15:55;1.70;99.90
17797;DHT22;55596;53.554;9.916;2022-12-07T04:18:24;1.60;99.90
17797;DHT22;55596;53.554;9.916;2022-12-07T04:20:51;1.50;99.90
17797;DHT22;55596;53.554;9.916;2022-12-07T04:23:18;1.70;99.90
17797;DHT22;55596;53.554;9.916;2022-12-07T04:25:48;1.70;99.90
17797;DHT22;55596;53.554;9.916;2022-12-07T04:28:14;2.70;99.90
17797;DHT22;55596;53.554;9.916;2022-12-07T04:30:41;1.50;99.90
17797;DHT22;55596;53.554;9.916;2022-12-07T04:33:08;1.70;99.90
17797;DHT22;55596;53.554;9.916;2022-12-07T04:35:43;1.60;99.90
17797;DHT22;55596;53.554;9.916;2022-12-07T04:38:10;1.40;99.90
17797;DHT22;55596;53.554;9.916;2022-12-07T04:40:37;1.50;99.90
17797;DHT22;55596;53.554;9.916;2022-12-07T04:43:05;1.50;99.90
17797;DHT22;55596;53.554;9.916;2022-12-07T04:45:33;1.70;99.90
17797;DHT22;55596;53.554;9.916;2022-12-07T04:48:01;1.70;99.90
17797;DHT22;55596;53.554;9.916;2022-12-07T04:50:28;1.50;99.90
17797;DHT22;55596;53.554;9.916;2022-12-07T04:52:59;1.40;99.90
17797;DHT22;55596;53.554;9.916;2022-12-07T04:55:29;1.50;99.90
17797;DHT22;55596;53.554;9.916;2022-12-07T04:57:57;1.40;99.90
17797;DHT22;55596;53.554;9.916;2022-12-07T05:00:24;1.50;99.90
17797;DHT22;55596;53.554;9.916;2022-12-07T05:02:58;1.40;99.90
17797;DHT22;55596;53.554;9.916;2022-12-07T05:05:28;1.70;99.90
17797;DHT22;55596;53.554;9.916;2022-12-07T05:07:57;1.40;99.90
17797;DHT22;55596;53.554;9.916;2022-12-07T05:10:32;1.70;99.90
17797;DHT22;55596;53.554;9.916;2022-12-07T05:13:13;1.20;99.90
17797;DHT22;55596;53.554;9.916;2022-12-07T05:15:54;1.20;99.90
17797;DHT22;55596;53.554;9.916;2022-12-07T05:18:21;3.80;99.90
17797;DHT22;55596;53.554;9.916;2022-12-07T05:20:50;1.00;99.90
17797;DHT22;55596;53.554;9.916;2022-12-07T05:23:31;1.20;99.90
17797;DHT22;55596;53.554;9.916;2022-12-07T05:25:59;3.10;99.90
17797;DHT22;55596;53.554;9.916;2022-12-07T05:28:27;1.30;99.90
17797;DHT22;55596;53.554;9.916;2022-12-07T05:30:55;0.90;99.90
17797;DHT22;55596;53.554;9.916;2022-12-07T05:33:22;1.20;99.90
17797;DHT22;55596;53.554;9.916;2022-12-07T05:35:49;0.90;99.90
17797;DHT22;55596;53.554;9.916;2022-12-07T05:38:16;0.70;99.90
17797;DHT22;55596;53.554;9.916;2022-12-07T05:40:51;0.90;99.90
17797;DHT22;55596;53.554;9.916;2022-12-07T05:43:21;0.80;99.90
17797;DHT22;55596;53.554;9.916;2022-12-07T05:45:50;3.10;99.90
17797;DHT22;55596;53.554;9.916;2022-12-07T05:48:17;0.90;99.90
17797;DHT22;55596;53.554;9.916;2022-12-07T05:50:47;0.90;99.90
17797;DHT22;55596;53.554;9.916;2022-12-07T05:53:15;0.70;99.90
17797;DHT22;55596;53.554;9.916;2022-12-07T05:55:48;1.00;99.90
17797;DHT22;55596;53.554;9.916;2022-12-07T05:58:17;1.00;99.90
17797;DHT22;55596;53.554;9.916;2022-12-07T06:01:02;1.00;99.90
17797;DHT22;55596;53.554;9.916;2022-12-07T06:03:37;0.90;99.90
17797;DHT22;55596;53.554;9.916;2022-12-07T06:06:05;1.10;99.90
17797;DHT22;55596;53.554;9.916;2022-12-07T06:08:32;1.00;99.90
17797;DHT22;55596;53.554;9.916;2022-12-07T06:11:05;1.30;99.90
17797;DHT22;55596;53.554;9.916;2022-12-07T06:13:49;1.00;99.90
17797;DHT22;55596;53.554;9.916;2022-12-07T06:16:17;0.50;99.90
17797;DHT22;55596;53.554;9.916;2022-12-07T06:18:44;0.80;99.90
17797;DHT22;55596;53.554;9.916;2022-12-07T06:21:17;0.80;99.90
17797;DHT22;55596;53.554;9.916;2022-12-07T06:23:44;1.20;99.90
17797;DHT22;55596;53.554;9.916;2022-12-07T06:26:15;0.90;99.90
17797;DHT22;55596;53.554;9.916;2022-12-07T06:28:42;0.90;99.90
17797;DHT22;55596;53.554;9.916;2022-12-07T06:33:38;1.00;99.90
17797;DHT22;55596;53.554;9.916;2022-12-07T06:36:06;1.30;99.90
17797;DHT22;55596;53.554;9.916;2022-12-07T06:38:33;1.40;99.90
17797;DHT22;55596;53.554;9.916;2022-12-07T06:41:02;1.10;99.90
17797;DHT22;55596;53.554;9.916;2022-12-07T06:43:31;1.10;99.90
17797;DHT22;55596;53.554;9.916;2022-12-07T06:45:59;1.20;99.90
17797;DHT22;55596;53.554;9.916;2022-12-07T06:48:26;1.30;99.90
17797;DHT22;55596;53.554;9.916;2022-12-07T06:50:53;1.20;99.90
17797;DHT22;55596;53.554;9.916;2022-12-07T06:53:21;1.10;99.90
17797;DHT22;55596;53.554;9.916;2022-12-07T06:55:48;1.20;99.90
17797;DHT22;55596;53.554;9.916;2022-12-07T06:58:17;1.20;99.90
17797;DHT22;55596;53.554;9.916;2022-12-07T07:01:14;3.90;99.90
17797;DHT22;55596;53.554;9.916;2022-12-07T07:03:44;1.80;99.90
17797;DHT22;55596;53.554;9.916;2022-12-07T07:06:12;0.80;99.90
17797;DHT22;55596;53.554;9.916;2022-12-07T07:08:43;0.90;99.90
17797;DHT22;55596;53.554;9.916;2022-12-07T07:11:13;3.20;99.90
17797;DHT22;55596;53.554;9.916;2022-12-07T07:13:41;1.00;99.90
17797;DHT22;55596;53.554;9.916;2022-12-07T07:16:10;0.90;99.90
17797;DHT22;55596;53.554;9.916;2022-12-07T07:18:37;1.20;99.90
17797;DHT22;55596;53.554;9.916;2022-12-07T07:21:05;1.20;99.90
17797;DHT22;55596;53.554;9.916;2022-12-07T07:23:32;1.10;99.90
17797;DHT22;55596;53.554;9.916;2022-12-07T07:26:03;0.80;99.90
17797;DHT22;55596;53.554;9.916;2022-12-07T07:28:32;1.20;99.90
17797;DHT22;55596;53.554;9.916;2022-12-07T07:30:59;1.20;99.90
17797;DHT22;55596;53.554;9.916;2022-12-07T07:33:31;1.10;99.90
17797;DHT22;55596;53.554;9.916;2022-12-07T07:35:58;1.30;99.90
17797;DHT22;55596;53.554;9.916;2022-12-07T07:38:39;1.20;99.90
17797;DHT22;55596;53.554;9.916;2022-12-07T07:41:08;1.10;99.90
17797;DHT22;55596;53.554;9.916;2022-12-07T07:43:36;3.20;99.90
17797;DHT22;55596;53.554;9.916;2022-12-07T07:46:04;1.10;99.90
17797;DHT22;55596;53.554;9.916;2022-12-07T07:48:34;1.20;99.90
17797;DHT22;55596;53.554;9.916;2022-12-07T07:51:05;1.30;99.90
17797;DHT22;55596;53.554;9.916;2022-12-07T07:53:33;1.20;99.90
17797;DHT22;55596;53.554;9.916;2022-12-07T07:56:02;1.30;99.90
17797;DHT22;55596;53.554;9.916;2022-12-07T07:58:31;1.40;99.90
17797;DHT22;55596;53.554;9.916;2022-12-07T08:01:03;1.40;99.90
17797;DHT22;55596;53.554;9.916;2022-12-07T08:03:30;2.00;99.90
17797;DHT22;55596;53.554;9.916;2022-12-07T08:06:01;1.70;99.90
17797;DHT22;55596;53.554;9.916;2022-12-07T08:08:29;1.60;99.90
17797;DHT22;55596;53.554;9.916;2022-12-07T08:10:56;1.50;99.90
17797;DHT22;55596;53.554;9.916;2022-12-07T08:13:26;1.50;99.90
17797;DHT22;55596;53.554;9.916;2022-12-07T08:15:54;1.80;99.90
17797;DHT22;55596;53.554;9.916;2022-12-07T08:18:25;1.50;99.90
17797;DHT22;55596;53.554;9.916;2022-12-07T08:21:00;1.40;99.90
17797;DHT22;55596;53.554;9.916;2022-12-07T08:23:27;3.10;99.90
17797;DHT22;55596;53.554;9.916;2022-12-07T08:26:04;1.80;99.90
17797;DHT22;55596;53.554;9.916;2022-12-07T08:28:33;1.90;99.90
17797;DHT22;55596;53.554;9.916;2022-12-07T08:31:04;3.70;99.90
17797;DHT22;55596;53.554;9.916;2022-12-07T08:33:33;1.80;99.90
17797;DHT22;55596;53.554;9.916;2022-12-07T08:36:07;3.60;99.90
17797;DHT22;55596;53.554;9.916;2022-12-07T08:38:35;1.90;99.90
17797;DHT22;55596;53.554;9.916;2022-12-07T08:41:06;1.90;99.90
17797;DHT22;55596;53.554;9.916;2022-12-07T08:43:34;2.30;99.90
17797;DHT22;55596;53.554;9.916;2022-12-07T08:46:07;4.40;99.90
17797;DHT22;55596;53.554;9.916;2022-12-07T08:48:38;2.20;99.90
17797;DHT22;55596;53.554;9.916;2022-12-07T08:51:07;2.00;99.90
17797;DHT22;55596;53.554;9.916;2022-12-07T08:53:35;2.30;99.90
17797;DHT22;55596;53.554;9.916;2022-12-07T08:56:04;2.50;99.90
17797;DHT22;55596;53.554;9.916;2022-12-07T08:58:32;1.90;99.90
17797;DHT22;55596;53.554;9.916;2022-12-07T09:01:00;2.20;99.90
17797;DHT22;55596;53.554;9.916;2022-12-07T09:03:27;2.50;99.90
17797;DHT22;55596;53.554;9.916;2022-12-07T09:05:55;2.40;99.90
17797;DHT22;55596;53.554;9.916;2022-12-07T09:08:31;2.60;99.90
17797;DHT22;55596;53.554;9.916;2022-12-07T09:11:00;2.40;99.90
17797;DHT22;55596;53.554;9.916;2022-12-07T09:13:31;2.40;99.90
17797;DHT22;55596;53.554;9.916;2022-12-07T09:15:58;2.60;99.90
17797;DHT22;55596;53.554;9.916;2022-12-07T09:18:26;2.70;99.90
17797;DHT22;55596;53.554;9.916;2022-12-07T09:20:56;2.70;99.90
17797;DHT22;55596;53.554;9.916;2022-12-07T09:23:29;2.70;99.90
17797;DHT22;55596;53.554;9.916;2022-12-07T09:25:59;2.80;99.90
17797;DHT22;55596;53.554;9.916;2022-12-07T09:28:27;4.00;99.90
17797;DHT22;55596;53.554;9.916;2022-12-07T09:30:54;2.90;99.90
17797;DHT22;55596;53.554;9.916;2022-12-07T09:33:27;3.10;99.90
17797;DHT22;55596;53.554;9.916;2022-12-07T09:35:54;3.20;99.90
17797;DHT22;55596;53.554;9.916;2022-12-07T09:38:22;3.00;99.90
17797;DHT22;55596;53.554;9.916;2022-12-07T09:40:55;3.40;99.90
17797;DHT22;55596;53.554;9.916;2022-12-07T09:43:24;3.30;99.90
17797;DHT22;55596;53.554;9.916;2022-12-07T09:46:00;3.40;99.90
17797;DHT22;55596;53.554;9.916;2022-12-07T09:48:43;3.20;99.90
17797;DHT22;55596;53.554;9.916;2022-12-07T09:51:15;4.00;99.90
17797;DHT22;55596;53.554;9.916;2022-12-07T09:53:46;3.60;99.90
17797;DHT22;55596;53.554;9.916;2022-12-07T09:56:18;3.80;99.90
17797;DHT22;55596;53.554;9.916;2022-12-07T09:58:48;3.80;99.90
17797;DHT22;55596;53.554;9.916;2022-12-07T10:01:19;3.70;99.90
17797;DHT22;55596;53.554;9.916;2022-12-07T10:03:50;4.10;99.90
17797;DHT22;55596;53.554;9.916;2022-12-07T10:06:24;4.10;99.90
17797;DHT22;55596;53.554;9.916;2022-12-07T10:08:55;6.20;99.90
17797;DHT22;55596;53.554;9.916;2022-12-07T10:11:33;4.80;99.90
17797;DHT22;55596;53.554;9.916;2022-12-07T10:14:11;6.80;99.90
17797;DHT22;55596;53.554;9.916;2022-12-07T10:16:41;7.10;99.90
17797;DHT22;55596;53.554;9.916;2022-12-07T10:19:24;4.00;99.90
17797;DHT22;55596;53.554;9.916;2022-12-07T10:22:14;3.90;99.90
17797;DHT22;55596;53.554;9.916;2022-12-07T10:24:43;6.70;99.90
17797;DHT22;55596;53.554;9.916;2022-12-07T10:27:19;3.30;99.90
17797;DHT22;55596;53.554;9.916;2022-12-07T10:29:52;4.10;99.90
17797;DHT22;55596;53.554;9.916;2022-12-07T10:32:31;3.70;99.90
17797;DHT22;55596;53.554;9.916;2022-12-07T10:35:31;3.50;99.90
17797;DHT22;55596;53.554;9.916;2022-12-07T10:38:16;3.80;99.90
17797;DHT22;55596;53.554;9.916;2022-12-07T10:40:46;4.20;99.90
17797;DHT22;55596;53.554;9.916;2022-12-07T10:43:21;3.60;99.90
17797;DHT22;55596;53.554;9.916;2022-12-07T10:49:01;4.00;99.90
17797;DHT22;55596;53.554;9.916;2022-12-07T10:51:36;4.20;99.90
17797;DHT22;55596;53.554;9.916;2022-12-07T10:54:11;4.20;99.90
17797;DHT22;55596;53.554;9.916;2022-12-07T10:57:02;4.10;99.90
17797;DHT22;55596;53.554;9.916;2022-12-07T11:00:02;4.40;99.90
17797;DHT22;55596;53.554;9.916;2022-12-07T11:05:44;4.80;99.90
17797;DHT22;55596;53.554;9.916;2022-12-07T11:08:21;4.40;99.90
17797;DHT22;55596;53.554;9.916;2022-12-07T11:11:09;4.10;99.90
17797;DHT22;55596;53.554;9.916;2022-12-07T11:13:48;4.10;99.90
17797;DHT22;55596;53.554;9.916;2022-12-07T11:16:34;4.30;99.90
17797;DHT22;55596;53.554;9.916;2022-12-07T11:19:16;4.20;99.90
17797;DHT22;55596;53.554;9.916;2022-12-07T11:21:57;5.20;99.90
17797;DHT22;55596;53.554;9.916;2022-12-07T11:24:32;6.70;99.90
17797;DHT22;55596;53.554;9.916;2022-12-07T11:27:16;4.50;99.90
17797;DHT22;55596;53.554;9.916;2022-12-07T11:30:01;4.50;99.90
17797;DHT22;55596;53.554;9.916;2022-12-07T11:32:48;4.10;99.90
17797;DHT22;55596;53.554;9.916;2022-12-07T11:35:23;4.10;99.90
17797;DHT22;55596;53.554;9.916;2022-12-07T11:37:57;4.20;99.90
17797;DHT22;55596;53.554;9.916;2022-12-07T11:40:29;4.50;99.90
17797;DHT22;55596;53.554;9.916;2022-12-07T11:43:04;4.90;99.90
17797;DHT22;55596;53.554;9.916;2022-12-07T11:45:33;4.20;99.90
17797;DHT22;55596;53.554;9.916;2022-12-07T11:48:04;4.40;99.90
17797;DHT22;55596;53.554;9.916;2022-12-07T11:50:37;4.20;99.90
17797;DHT22;55596;53.554;9.916;2022-12-07T11:53:10;4.20;99.90
17797;DHT22;55596;53.554;9.916;2022-12-07T11:55:43;4.30;99.90
17797;DHT22;55596;53.554;9.916;2022-12-07T11:58:28;6.00;99.90
17797;DHT22;55596;53.554;9.916;2022-12-07T12:01:12;4.50;99.90
17797;DHT22;55596;53.554;9.916;2022-12-07T12:03:50;4.80;99.90
17797;DHT22;55596;53.554;9.916;2022-12-07T12:06:17;4.60;99.90
17797;DHT22;55596;53.554;9.916;2022-12-07T12:08:49;4.60;99.90
17797;DHT22;55596;53.554;9.916;2022-12-07T12:11:30;4.70;99.90
17797;DHT22;55596;53.554;9.916;2022-12-07T12:14:23;4.30;99.90
17797;DHT22;55596;53.554;9.916;2022-12-07T12:17:09;4.70;99.90
17797;DHT22;55596;53.554;9.916;2022-12-07T12:22:27;4.70;99.90
17797;DHT22;55596;53.554;9.916;2022-12-07T12:24:57;4.40;99.90
17797;DHT22;55596;53.554;9.916;2022-12-07T12:27:27;5.00;99.90
17797;DHT22;55596;53.554;9.916;2022-12-07T12:29:58;4.90;99.90
17797;DHT22;55596;53.554;9.916;2022-12-07T12:32:34;4.90;99.90
17797;DHT22;55596;53.554;9.916;2022-12-07T12:38:28;5.60;99.90
17797;DHT22;55596;53.554;9.916;2022-12-07T12:40:57;6.30;99.90
17797;DHT22;55596;53.554;9.916;2022-12-07T12:43:43;6.40;99.90
17797;DHT22;55596;53.554;9.916;2022-12-07T12:49:40;7.40;99.90
17797;DHT22;55596;53.554;9.916;2022-12-07T12:58:36;7.50;99.90
17797;DHT22;55596;53.554;9.916;2022-12-07T13:04:22;6.80;99.90
17797;DHT22;55596;53.554;9.916;2022-12-07T13:06:51;7.00;99.90
17797;DHT22;55596;53.554;9.916;2022-12-07T13:09:21;7.20;99.90
17797;DHT22;55596;53.554;9.916;2022-12-07T13:11:56;6.90;99.90
17797;DHT22;55596;53.554;9.916;2022-12-07T13:14:53;7.50;99.90
17797;DHT22;55596;53.554;9.916;2022-12-07T13:17:56;7.50;99.90
17797;DHT22;55596;53.554;9.916;2022-12-07T13:20:41;7.00;99.90
17797;DHT22;55596;53.554;9.916;2022-12-07T13:23:09;7.00;99.90
17797;DHT22;55596;53.554;9.916;2022-12-07T13:25:44;7.10;99.90
17797;DHT22;55596;53.554;9.916;2022-12-07T13:28:18;6.20;99.90
17797;DHT22;55596;53.554;9.916;2022-12-07T13:31:03;5.80;99.90
17797;DHT22;55596;53.554;9.916;2022-12-07T13:33:34;5.30;99.90
17797;DHT22;55596;53.554;9.916;2022-12-07T13:36:02;5.40;99.90
17797;DHT22;55596;53.554;9.916;2022-12-07T13:38:32;5.30;99.90
17797;DHT22;55596;53.554;9.916;2022-12-07T13:41:13;5.50;99.90
17797;DHT22;55596;53.554;9.916;2022-12-07T13:43:49;5.60;99.90
17797;DHT22;55596;53.554;9.916;2022-12-07T13:46:20;5.50;99.90
17797;DHT22;55596;53.554;9.916;2022-12-07T13:48:50;5.00;99.90
17797;DHT22;55596;53.554;9.916;2022-12-07T13:51:22;5.20;99.90
17797;DHT22;55596;53.554;9.916;2022-12-07T13:53:51;5.10;99.90
17797;DHT22;55596;53.554;9.916;2022-12-07T13:56:22;4.60;99.90
17797;DHT22;55596;53.554;9.916;2022-12-07T13:58:51;4.60;99.90
17797;DHT22;55596;53.554;9.916;2022-12-07T14:01:18;4.80;99.90
17797;DHT22;55596;53.554;9.916;2022-12-07T14:03:45;5.00;99.90
17797;DHT22;55596;53.554;9.916;2022-12-07T14:06:25;5.10;99.90
17797;DHT22;55596;53.554;9.916;2022-12-07T14:09:07;4.80;99.90
17797;DHT22;55596;53.554;9.916;2022-12-07T14:11:34;5.00;99.90
17797;DHT22;55596;53.554;9.916;2022-12-07T14:14:03;5.00;99.90
17797;DHT22;55596;53.554;9.916;2022-12-07T14:16:32;4.80;99.90
17797;DHT22;55596;53.554;9.916;2022-12-07T14:19:02;4.30;99.90
17797;DHT22;55596;53.554;9.916;2022-12-07T14:21:31;4.40;99.90
17797;DHT22;55596;53.554;9.916;2022-12-07T14:24:18;4.30;99.90
17797;DHT22;55596;53.554;9.916;2022-12-07T14:26:47;4.10;99.90
17797;DHT22;55596;53.554;9.916;2022-12-07T14:29:31;3.90;99.90
17797;DHT22;55596;53.554;9.916;2022-12-07T14:32:20;3.60;99.90
17797;DHT22;55596;53.554;9.916;2022-12-07T14:34:56;4.00;99.90
17797;DHT22;55596;53.554;9.916;2022-12-07T14:37:23;3.60;99.90
17797;DHT22;55596;53.554;9.916;2022-12-07T14:39:51;3.90;99.90
17797;DHT22;55596;53.554;9.916;2022-12-07T14:42:18;3.80;99.90
17797;DHT22;55596;53.554;9.916;2022-12-07T14:44:47;4.20;99.90
17797;DHT22;55596;53.554;9.916;2022-12-07T14:47:16;3.20;99.90
17797;DHT22;55596;53.554;9.916;2022-12-07T14:49:44;3.50;99.90
17797;DHT22;55596;53.554;9.916;2022-12-07T14:52:16;3.10;99.90
17797;DHT22;55596;53.554;9.916;2022-12-07T14:54:44;3.90;99.90
17797;DHT22;55596;53.554;9.916;2022-12-07T14:57:11;2.90;99.90
17797;DHT22;55596;53.554;9.916;2022-12-07T14:59:39;2.90;99.90
17797;DHT22;55596;53.554;9.916;2022-12-07T15:02:09;3.00;99.90
17797;DHT22;55596;53.554;9.916;2022-12-07T15:04:38;3.00;99.90
17797;DHT22;55596;53.554;9.916;2022-12-07T15:07:09;2.40;99.90
17797;DHT22;55596;53.554;9.916;2022-12-07T15:09:37;2.60;99.90
17797;DHT22;55596;53.554;9.916;2022-12-07T15:12:05;2.30;99.90
17797;DHT22;55596;53.554;9.916;2022-12-07T15:14:32;2.50;99.90
17797;DHT22;55596;53.554;9.916;2022-12-07T15:16:59;2.40;99.90
17797;DHT22;55596;53.554;9.916;2022-12-07T15:19:27;2.10;99.90
17797;DHT22;55596;53.554;9.916;2022-12-07T15:21:55;2.40;99.90
17797;DHT22;55596;53.554;9.916;2022-12-07T15:24:22;2.70;99.90
17797;DHT22;55596;53.554;9.916;2022-12-07T15:26:49;2.10;99.90
17797;DHT22;55596;53.554;9.916;2022-12-07T15:29:17;2.70;99.90
17797;DHT22;55596;53.554;9.916;2022-12-07T15:31:45;2.40;99.90
17797;DHT22;55596;53.554;9.916;2022-12-07T15:34:14;2.00;99.90
17797;DHT22;55596;53.554;9.916;2022-12-07T15:36:43;1.90;99.90
17797;DHT22;55596;53.554;9.916;2022-12-07T15:39:11;2.30;99.90
17797;DHT22;55596;53.554;9.916;2022-12-07T15:41:38;2.10;99.90
17797;DHT22;55596;53.554;9.916;2022-12-07T15:44:05;1.90;99.90
17797;DHT22;55596;53.554;9.916;2022-12-07T15:46:50;1.80;99.90
17797;DHT22;55596;53.554;9.916;2022-12-07T15:49:18;2.30;99.90
17797;DHT22;55596;53.554;9.916;2022-12-07T15:51:46;1.80;99.90
17797;DHT22;55596;53.554;9.916;2022-12-07T15:54:17;1.90;99.90
17797;DHT22;55596;53.554;9.916;2022-12-07T15:56:45;1.90;99.90
17797;DHT22;55596;53.554;9.916;2022-12-07T15:59:12;1.60;99.90
17797;DHT22;55596;53.554;9.916;2022-12-07T16:01:39;1.50;99.90
17797;DHT22;55596;53.554;9.916;2022-12-07T16:04:07;1.40;99.90
17797;DHT22;55596;53.554;9.916;2022-12-07T16:06:34;1.70;99.90
17797;DHT22;55596;53.554;9.916;2022-12-07T16:09:03;1.60;99.90
17797;DHT22;55596;53.554;9.916;2022-12-07T16:11:30;1.30;99.90
17797;DHT22;55596;53.554;9.916;2022-12-07T16:13:57;1.30;99.90
17797;DHT22;55596;53.554;9.916;2022-12-07T16:16:25;1.30;99.90
17797;DHT22;55596;53.554;9.916;2022-12-07T16:18:52;1.50;99.90
17797;DHT22;55596;53.554;9.916;2022-12-07T16:21:20;1.00;99.90
17797;DHT22;55596;53.554;9.916;2022-12-07T16:23:48;1.30;99.90
17797;DHT22;55596;53.554;9.916;2022-12-07T16:26:18;1.90;99.90
17797;DHT22;55596;53.554;9.916;2022-12-07T16:28:48;1.40;99.90
17797;DHT22;55596;53.554;9.916;2022-12-07T16:31:16;1.60;99.90
17797;DHT22;55596;53.554;9.916;2022-12-07T16:33:44;1.30;99.90
17797;DHT22;55596;53.554;9.916;2022-12-07T16:36:12;1.20;99.90
17797;DHT22;55596;53.554;9.916;2022-12-07T16:38:41;1.10;99.90
17797;DHT22;55596;53.554;9.916;2022-12-07T16:41:10;0.60;99.90
17797;DHT22;55596;53.554;9.916;2022-12-07T16:43:39;1.00;99.90
17797;DHT22;55596;53.554;9.916;2022-12-07T16:46:07;0.70;99.90
17797;DHT22;55596;53.554;9.916;2022-12-07T16:48:35;1.00;99.90